createdAt,value
2023-05-02T00:00:03.759Z,86.40
2023-05-02T00:03:06.947Z,86.50
2023-05-02T00:06:09.638Z,86.70
2023-05-02T00:09:12.098Z,87.10
2023-05-02T00:12:14.055Z,87.70
2023-05-02T00:15:16.054Z,87.30
2023-05-02T00:18:18.129Z,87.30
2023-05-02T00:21:20.188Z,87.00
2023-05-02T00:24:22.359Z,87.10
2023-05-02T00:27:25.614Z,87.20
2023-05-02T00:30:27.621Z,86.80
2023-05-02T00:33:29.715Z,86.30
2023-05-02T00:36:32.017Z,86.70
2023-05-02T00:39:35.449Z,86.80
2023-05-02T00:42:37.509Z,87.00
2023-05-02T00:45:40.387Z,86.80
2023-05-02T00:48:42.468Z,86.80
2023-05-02T00:51:44.751Z,86.70
2023-05-02T00:54:47.796Z,86.70
2023-05-02T00:57:49.768Z,86.70
2023-05-02T01:01:24.238Z,86.50
2023-05-02T01:04:32.348Z,86.40
2023-05-02T01:07:55.836Z,86.50
2023-05-02T01:11:17.592Z,86.40
2023-05-02T01:14:22.283Z,86.20
2023-05-02T01:17:29.041Z,86.30
2023-05-02T01:20:33.270Z,86.50
2023-05-02T01:24:02.888Z,86.30
2023-05-02T01:27:17.569Z,86.30
2023-05-02T01:30:21.636Z,86.10
2023-05-02T01:33:25.605Z,86.30
2023-05-02T01:36:30.065Z,86.20
2023-05-02T01:39:33.861Z,86.10
2023-05-02T01:42:37.458Z,86.00
2023-05-02T01:45:40.666Z,86.00
2023-05-02T01:48:45.777Z,86.30
2023-05-02T01:51:49.929Z,86.30
2023-05-02T01:54:53.076Z,86.40
2023-05-02T01:57:56.649Z,86.20
2023-05-02T02:01:01.078Z,86.00
2023-05-02T02:04:04.987Z,86.40
2023-05-02T02:07:10.833Z,86.50
2023-05-02T02:10:13.445Z,86.10
2023-05-02T02:13:27.637Z,86.60
2023-05-02T02:16:33.356Z,86.70
2023-05-02T02:19:35.862Z,87.00
2023-05-02T02:22:38.919Z,86.90
2023-05-02T02:25:41.182Z,86.70
2023-05-02T02:28:44.067Z,86.70
2023-05-02T02:31:46.074Z,87.20
2023-05-02T02:34:48.069Z,87.30
2023-05-02T02:38:12.638Z,87.10
2023-05-02T02:41:27.522Z,86.80
2023-05-02T02:44:56.265Z,86.70
2023-05-02T02:48:46.319Z,86.40
2023-05-02T02:51:56.248Z,87.20
2023-05-02T02:55:17.437Z,87.70
2023-05-02T02:58:36.735Z,87.00
2023-05-02T03:01:41.961Z,86.60
2023-05-02T03:04:47.053Z,86.80
2023-05-02T03:07:49.445Z,86.80
2023-05-02T03:10:54.212Z,86.70
2023-05-02T03:13:56.150Z,87.10
2023-05-02T03:16:59.154Z,86.80
2023-05-02T03:20:01.642Z,87.30
2023-05-02T03:23:03.886Z,87.50
2023-05-02T03:26:06.185Z,87.80
2023-05-02T03:29:09.126Z,87.90
2023-05-02T03:32:14.843Z,87.30
2023-05-02T03:35:18.998Z,87.60
2023-05-02T03:38:22.315Z,87.90
2023-05-02T03:41:25.359Z,88.00
2023-05-02T03:44:34.459Z,87.80
2023-05-02T03:47:47.253Z,87.00
2023-05-02T03:50:52.732Z,87.20
2023-05-02T03:53:54.906Z,87.40
2023-05-02T03:56:56.965Z,87.60
2023-05-02T04:00:04.498Z,86.90
2023-05-02T04:03:13.510Z,87.10
2023-05-02T04:06:18.490Z,87.20
2023-05-02T04:09:26.247Z,86.70
2023-05-02T04:12:33.419Z,86.70
2023-05-02T04:15:36.246Z,86.50
2023-05-02T04:18:38.964Z,86.70
2023-05-02T04:21:43.176Z,86.50
2023-05-02T04:24:45.374Z,86.60
2023-05-02T04:27:48.383Z,86.60
2023-05-02T04:30:53.892Z,86.60
2023-05-02T04:33:59.387Z,86.90
2023-05-02T04:37:05.347Z,86.70
2023-05-02T04:40:09.423Z,86.70
2023-05-02T04:43:11.644Z,86.70
2023-05-02T04:46:23.227Z,86.70
2023-05-02T04:49:25.355Z,86.90
2023-05-02T04:52:27.436Z,87.00
2023-05-02T04:55:29.846Z,87.50
2023-05-02T04:58:32.132Z,87.00
2023-05-02T05:01:37.975Z,87.10
2023-05-02T05:04:40.187Z,86.90
2023-05-02T05:07:42.470Z,86.90
2023-05-02T05:10:46.157Z,86.30
2023-05-02T05:13:48.464Z,86.30
2023-05-02T05:16:51.416Z,86.00
2023-05-02T05:19:53.709Z,86.50
2023-05-02T05:22:56.475Z,85.70
2023-05-02T05:26:12.454Z,85.60
2023-05-02T05:29:16.976Z,85.60
2023-05-02T05:32:19.191Z,86.00
2023-05-02T05:35:21.692Z,85.50
2023-05-02T05:38:23.774Z,85.20
2023-05-02T05:41:26.663Z,85.10
2023-05-02T05:44:36.982Z,84.50
2023-05-02T05:47:39.208Z,84.50
2023-05-02T05:50:41.322Z,83.90
2023-05-02T05:53:43.372Z,83.50
2023-05-02T05:56:47.626Z,82.80
2023-05-02T05:59:53.594Z,82.20
2023-05-02T06:02:55.896Z,81.10
2023-05-02T06:06:03.220Z,81.90
2023-05-02T06:09:05.606Z,81.50
2023-05-02T06:12:08.513Z,81.60
2023-05-02T06:15:13.101Z,79.20
2023-05-02T06:18:16.135Z,77.70
2023-05-02T06:21:18.703Z,77.50
2023-05-02T06:24:24.030Z,76.90
2023-05-02T06:27:25.994Z,76.60
2023-05-02T06:30:27.993Z,77.00
2023-05-02T06:33:30.924Z,77.20
2023-05-02T06:36:32.909Z,78.10
2023-05-02T06:39:34.876Z,78.60
2023-05-02T06:42:36.841Z,78.60
2023-05-02T06:45:39.553Z,78.00
2023-05-02T06:48:41.577Z,77.20
2023-05-02T06:51:43.836Z,77.10
2023-05-02T06:54:45.707Z,73.80
2023-05-02T06:57:49.403Z,67.20
2023-05-02T07:00:51.390Z,66.80
2023-05-02T07:03:53.607Z,67.20
2023-05-02T07:06:55.647Z,65.30
2023-05-02T07:09:57.819Z,64.70
2023-05-02T07:13:00.090Z,69.20
2023-05-02T07:16:02.217Z,68.30
2023-05-02T07:19:04.260Z,67.70
2023-05-02T07:22:06.217Z,64.80
2023-05-02T07:25:08.523Z,62.60
2023-05-02T07:28:10.481Z,64.30
2023-05-02T07:31:12.477Z,64.60
2023-05-02T07:34:17.075Z,64.10
2023-05-02T07:37:19.122Z,62.70
2023-05-02T07:40:21.214Z,63.70
2023-05-02T07:43:23.090Z,65.70
2023-05-02T07:46:27.905Z,65.30
2023-05-02T07:49:30.174Z,65.00
2023-05-02T07:52:32.083Z,63.40
2023-05-02T07:55:34.064Z,64.40
2023-05-02T07:58:36.651Z,62.30
2023-05-02T08:01:40.079Z,61.00
2023-05-02T08:04:42.115Z,60.60
2023-05-02T08:07:44.074Z,62.80
2023-05-02T08:10:46.109Z,61.60
2023-05-02T08:13:48.191Z,61.40
2023-05-02T08:16:50.235Z,61.30
2023-05-02T08:19:52.197Z,61.10
2023-05-02T08:22:54.364Z,61.30
2023-05-02T08:25:56.291Z,61.10
2023-05-02T08:28:58.241Z,61.30
2023-05-02T08:32:00.268Z,58.80
2023-05-02T08:35:02.273Z,56.40
2023-05-02T08:38:04.116Z,58.80
2023-05-02T08:41:19.182Z,59.90
2023-05-02T08:44:23.645Z,60.10
2023-05-02T08:47:27.184Z,60.40
2023-05-02T08:50:30.917Z,61.40
2023-05-02T08:53:35.271Z,60.90
2023-05-02T08:56:38.466Z,61.70
2023-05-02T08:59:43.303Z,62.10
2023-05-02T09:02:51.178Z,59.40
2023-05-02T09:06:00.064Z,61.20
2023-05-02T09:09:02.092Z,56.90
2023-05-02T09:12:03.962Z,54.00
2023-05-02T09:15:12.567Z,52.90
2023-05-02T09:18:20.431Z,52.00
2023-05-02T09:21:23.383Z,51.50
2023-05-02T09:24:25.841Z,50.50
2023-05-02T09:27:28.253Z,50.90
2023-05-02T09:30:30.214Z,48.60
2023-05-02T09:33:32.161Z,50.60
2023-05-02T09:36:39.393Z,49.60
2023-05-02T09:40:01.346Z,52.00
2023-05-02T09:43:14.649Z,49.20
2023-05-02T09:46:16.648Z,48.70
2023-05-02T09:49:19.644Z,51.00
2023-05-02T09:52:27.987Z,50.50
2023-05-02T09:55:29.972Z,49.70
2023-05-02T09:58:32.153Z,49.30
2023-05-02T10:01:34.180Z,48.70
2023-05-02T10:04:36.958Z,45.70
2023-05-02T10:07:39.750Z,48.20
2023-05-02T10:10:46.043Z,54.50
2023-05-02T10:13:51.394Z,56.00
2023-05-02T10:17:12.290Z,57.60
2023-05-02T10:20:19.474Z,58.60
2023-05-02T10:23:22.228Z,58.90
2023-05-02T10:26:24.271Z,59.50
2023-05-02T10:29:32.384Z,59.30
2023-05-02T10:32:34.470Z,54.70
2023-05-02T10:35:37.433Z,54.10
2023-05-02T10:38:42.249Z,50.90
2023-05-02T10:41:44.765Z,49.00
2023-05-02T10:44:47.501Z,49.60
2023-05-02T10:47:49.556Z,47.40
2023-05-02T11:04:06.172Z,53.20
2023-05-02T11:07:17.273Z,55.30
2023-05-02T11:10:19.225Z,56.20
2023-05-02T11:13:49.401Z,56.30
2023-05-02T11:17:03.693Z,55.10
2023-05-02T11:20:05.691Z,54.60
2023-05-02T11:23:16.676Z,55.40
2023-05-02T11:26:22.182Z,54.20
2023-05-02T11:29:52.695Z,52.30
2023-05-02T11:32:54.711Z,51.70
2023-05-02T11:35:56.743Z,52.60
2023-05-02T11:38:58.812Z,52.20
2023-05-02T11:42:00.839Z,50.10
2023-05-02T11:45:03.113Z,51.70
2023-05-02T11:48:06.545Z,51.90
2023-05-02T11:51:08.615Z,50.90
2023-05-02T11:54:20.365Z,50.00
2023-05-02T11:57:23.008Z,49.60
2023-05-02T12:00:28.134Z,50.20
2023-05-02T12:03:32.724Z,50.20
2023-05-02T12:06:35.418Z,49.20
2023-05-02T12:09:50.875Z,50.30
2023-05-02T12:13:04.970Z,48.30
2023-05-02T12:16:07.393Z,49.60
2023-05-02T12:19:09.546Z,49.30
2023-05-02T12:22:12.020Z,50.40
2023-05-02T12:25:14.143Z,49.50
2023-05-02T12:28:19.537Z,50.60
2023-05-02T12:31:21.974Z,50.60
2023-05-02T12:34:37.347Z,51.20
2023-05-02T12:37:39.320Z,47.90
2023-05-02T12:40:54.014Z,49.30
2023-05-02T12:43:55.981Z,49.50
2023-05-02T12:46:59.587Z,48.00
2023-05-02T12:50:01.798Z,47.70
2023-05-02T12:53:04.028Z,48.60
2023-05-02T12:56:06.629Z,49.00
2023-05-02T12:59:08.956Z,49.50
2023-05-02T13:02:10.906Z,50.20
2023-05-02T13:05:16.058Z,49.00
2023-05-02T13:08:18.048Z,49.90
2023-05-02T13:11:20.014Z,50.80
2023-05-02T13:14:22.045Z,48.50
2023-05-02T13:17:24.127Z,48.40
2023-05-02T13:20:26.149Z,45.80
2023-05-02T13:23:28.080Z,46.30
2023-05-02T13:26:30.342Z,44.90
2023-05-02T13:29:32.317Z,45.50
2023-05-02T13:32:34.201Z,47.10
2023-05-02T13:35:36.462Z,46.00
2023-05-02T13:38:38.509Z,50.40
2023-05-02T13:41:40.452Z,48.00
2023-05-02T13:44:42.457Z,49.10
2023-05-02T13:47:47.078Z,45.80
2023-05-02T13:50:49.096Z,47.00
2023-05-02T13:53:50.936Z,44.60
2023-05-02T13:56:52.985Z,45.80
2023-05-02T13:59:56.743Z,47.00
2023-05-02T14:02:58.904Z,44.80
2023-05-02T14:06:00.974Z,45.40
2023-05-02T14:09:03.664Z,45.80
2023-05-02T14:12:05.682Z,46.20
2023-05-02T14:15:07.929Z,46.90
2023-05-02T14:18:09.925Z,45.30
2023-05-02T14:21:11.991Z,47.50
2023-05-02T14:24:13.954Z,44.50
2023-05-02T14:27:15.908Z,44.30
2023-05-02T14:30:17.840Z,46.30
2023-05-02T14:33:20.159Z,46.50
2023-05-02T14:36:22.339Z,44.30
2023-05-02T14:39:26.914Z,43.00
2023-05-02T14:42:28.917Z,44.70
2023-05-02T14:45:30.957Z,44.70
2023-05-02T14:48:32.856Z,43.40
2023-05-02T14:51:37.112Z,46.00
2023-05-02T14:54:39.196Z,45.70
2023-05-02T14:57:41.227Z,45.40
2023-05-02T15:00:43.332Z,46.00
2023-05-02T15:04:03.542Z,45.60
2023-05-02T15:07:07.601Z,44.00
2023-05-02T15:10:09.761Z,45.00
2023-05-02T15:13:11.825Z,43.70
2023-05-02T15:16:13.804Z,44.00
2023-05-02T15:19:15.786Z,46.70
2023-05-02T15:22:17.779Z,46.90
2023-05-02T15:25:19.746Z,46.80
2023-05-02T15:28:22.328Z,46.00
2023-05-02T15:31:24.350Z,44.50
2023-05-02T15:34:26.957Z,45.00
2023-05-02T15:37:28.949Z,40.40
2023-05-02T15:40:31.017Z,42.60
2023-05-02T15:43:32.981Z,41.10
2023-05-02T15:46:34.845Z,42.50
2023-05-02T15:49:36.885Z,42.10
2023-05-02T15:52:38.827Z,43.20
2023-05-02T15:55:40.869Z,42.10
2023-05-02T15:58:42.714Z,40.50
2023-05-02T16:01:45.417Z,40.20
2023-05-02T16:04:47.422Z,42.20
2023-05-02T16:07:49.354Z,42.40
2023-05-02T16:10:54.032Z,42.80
2023-05-02T16:13:56.044Z,42.70
2023-05-02T16:16:58.710Z,45.10
2023-05-02T16:20:00.893Z,48.20
2023-05-02T16:23:03.845Z,48.10
2023-05-02T16:26:05.938Z,47.90
2023-05-02T16:29:07.910Z,47.70
2023-05-02T16:32:09.908Z,49.20
2023-05-02T16:35:12.114Z,49.00
2023-05-02T16:38:14.125Z,48.20
2023-05-02T16:41:15.965Z,48.20
2023-05-02T16:44:18.010Z,49.00
2023-05-02T16:47:19.908Z,48.40
2023-05-02T16:50:22.039Z,48.00
2023-05-02T16:53:25.096Z,47.30
2023-05-02T16:56:27.400Z,46.60
2023-05-02T16:59:29.522Z,47.20
2023-05-02T17:02:31.782Z,47.50
2023-05-02T17:05:33.981Z,47.60
2023-05-02T17:08:35.864Z,49.00
2023-05-02T17:11:37.795Z,46.70
2023-05-02T17:14:41.069Z,47.10
2023-05-02T17:17:43.886Z,47.10
2023-05-02T17:20:47.032Z,47.80
2023-05-02T17:23:49.117Z,48.50
2023-05-02T17:26:51.080Z,47.90
2023-05-02T17:29:53.010Z,46.80
2023-05-02T17:32:55.458Z,47.50
2023-05-02T17:35:57.503Z,46.90
2023-05-02T17:38:59.840Z,46.90
2023-05-02T17:42:01.859Z,48.00
2023-05-02T17:45:04.068Z,48.50
2023-05-02T17:48:06.189Z,49.10
2023-05-02T17:51:08.122Z,49.70
2023-05-02T17:54:10.114Z,49.10
2023-05-02T17:57:12.318Z,50.50
2023-05-02T18:00:14.938Z,51.30
2023-05-02T18:03:17.107Z,50.50
2023-05-02T18:06:19.294Z,51.30
2023-05-02T18:09:33.286Z,50.50
2023-05-02T18:12:46.598Z,51.80
2023-05-02T18:16:00.448Z,52.00
2023-05-02T18:19:02.511Z,52.60
2023-05-02T18:22:04.480Z,52.60
2023-05-02T18:25:07.001Z,53.50
2023-05-02T18:28:09.467Z,53.90
2023-05-02T18:31:17.476Z,54.20
2023-05-02T18:34:19.842Z,54.40
2023-05-02T18:37:21.834Z,55.20
2023-05-02T18:40:24.112Z,55.60
2023-05-02T18:43:25.955Z,55.50
2023-05-02T18:46:27.867Z,54.70
2023-05-02T18:49:29.981Z,54.90
2023-05-02T18:52:34.454Z,55.20
2023-05-02T18:55:36.510Z,55.80
2023-05-02T18:58:38.504Z,55.50
2023-05-02T19:01:40.652Z,56.10
2023-05-02T19:04:42.800Z,56.70
2023-05-02T19:07:47.358Z,56.90
2023-05-02T19:10:49.308Z,56.60
2023-05-02T19:13:51.389Z,57.50
2023-05-02T19:16:54.023Z,57.20
2023-05-02T19:19:56.941Z,57.50
2023-05-02T19:23:14.719Z,57.40
2023-05-02T19:26:20.678Z,58.30
2023-05-02T19:29:22.630Z,58.70
2023-05-02T19:32:24.772Z,58.20
2023-05-02T19:35:29.951Z,58.50
2023-05-02T19:38:32.170Z,58.50
2023-05-02T19:41:34.164Z,58.50
2023-05-02T19:44:36.331Z,58.10
2023-05-02T19:47:38.522Z,57.40
2023-05-02T19:50:40.636Z,58.20
2023-05-02T19:53:42.671Z,57.10
2023-05-02T19:56:44.846Z,57.90
2023-05-02T19:59:46.913Z,58.10
2023-05-02T20:02:51.235Z,57.80
2023-05-02T20:05:53.533Z,58.20
2023-05-02T20:08:55.610Z,57.40
2023-05-02T20:11:57.682Z,58.50
2023-05-02T20:14:59.638Z,58.70
2023-05-02T20:18:01.928Z,58.80
2023-05-02T20:21:03.905Z,58.80
2023-05-02T20:24:06.509Z,58.70
2023-05-02T20:27:08.583Z,59.00
2023-05-02T20:30:11.214Z,59.50
2023-05-02T20:33:16.654Z,59.50
2023-05-02T20:36:19.775Z,59.60
2023-05-02T20:39:22.020Z,59.40
2023-05-02T20:42:25.543Z,59.90
2023-05-02T20:45:27.691Z,60.30
2023-05-02T20:48:29.825Z,60.10
2023-05-02T20:51:31.863Z,59.70
2023-05-02T20:54:33.898Z,60.90
2023-05-02T20:57:36.148Z,60.30
2023-05-02T21:00:38.193Z,60.80
2023-05-02T21:03:40.198Z,60.70
2023-05-02T21:06:42.315Z,61.40
2023-05-02T21:09:44.241Z,61.40
2023-05-02T21:12:46.293Z,60.70
2023-05-02T21:15:48.260Z,60.60
2023-05-02T21:18:50.288Z,61.10
2023-05-02T21:21:52.215Z,60.60
2023-05-02T21:24:54.174Z,60.90
2023-05-02T21:27:56.091Z,60.70
2023-05-02T21:30:58.161Z,60.80
2023-05-02T21:34:00.682Z,60.40
2023-05-02T21:37:02.650Z,60.50
2023-05-02T21:40:05.215Z,61.20
2023-05-02T21:43:08.622Z,61.40
2023-05-02T21:46:11.803Z,61.90
2023-05-02T21:49:13.836Z,62.10
2023-05-02T21:52:15.794Z,62.40
2023-05-02T21:55:17.864Z,62.40
2023-05-02T21:58:20.079Z,61.80
2023-05-02T22:01:22.609Z,63.10
2023-05-02T22:04:24.755Z,63.10
2023-05-02T22:07:27.102Z,63.30
2023-05-02T22:10:30.552Z,63.50
2023-05-02T22:13:32.522Z,63.70
2023-05-02T22:16:34.692Z,64.60
2023-05-02T22:19:36.801Z,64.60
2023-05-02T22:22:39.878Z,64.80
2023-05-02T22:25:43.594Z,65.50
2023-05-02T22:28:45.747Z,64.90
2023-05-02T22:31:47.692Z,64.60
2023-05-02T22:34:49.880Z,64.50
2023-05-02T22:37:51.884Z,64.80
2023-05-02T22:40:54.409Z,65.60
2023-05-02T22:43:56.393Z,65.10
2023-05-02T22:47:06.149Z,66.00
2023-05-02T22:50:08.660Z,65.80
2023-05-02T22:53:10.574Z,66.50
2023-05-02T22:56:12.563Z,66.70
2023-05-02T22:59:17.021Z,66.90
2023-05-02T23:02:19.031Z,67.20
2023-05-02T23:05:21.317Z,67.30
2023-05-02T23:08:23.324Z,67.00
2023-05-02T23:11:25.308Z,67.20
2023-05-02T23:14:28.281Z,67.30
2023-05-02T23:17:30.282Z,67.90
2023-05-02T23:20:33.951Z,68.40
2023-05-02T23:23:35.936Z,68.00
2023-05-02T23:26:37.894Z,68.30
2023-05-02T23:29:39.929Z,68.20
2023-05-02T23:32:42.010Z,68.90
2023-05-02T23:35:45.651Z,69.10
2023-05-02T23:38:47.756Z,69.50
2023-05-02T23:41:49.699Z,69.40
2023-05-02T23:44:51.685Z,69.80
2023-05-02T23:47:53.752Z,69.30
2023-05-02T23:50:55.885Z,68.90
2023-05-02T23:53:58.080Z,69.10
2023-05-02T23:57:00.711Z,69.40
